Hlavní strana
METAR-TAF:

METAR-TAF

Letiště :

Letiště Ženeva

Ženeva, Švýcarsko

zeměpisná šířka: 46-15N, zeměpisná délka: 006-08E, výška: 420 m

Aktuální stav počasí

Zpráva byla vytvořena před 31 minutami, v 21:20 UTC
vítr z různých směrů 2 kt
Teplota 5°C
Vlhkost vzduchu 75%
Tlak 1030 hPa
Viditelnost 10 km a více
Žádná oblačnost pod 1500 m, nevyskytují se cumulonimby.

METAR: LSGG 282120Z VRB02KT CAVOK 05/01 Q1030 NOSIG

Čas: 22:51 (21:51 UTC)

Předpověď počasí

Zpráva byla vytvořena před 1 hodinou a 26 minutami, v 20:25 UTC
Předpověď platná od 28 v 21 UTC do 02 v 03 UTC
Severovýchodní vítr 5 kt
Viditelnost 10 km a více
Žádná oblačnost pod 1500 m, nevyskytují se cumulonimby.
Pravděpodobnost 40%
od 01 v 02 UTC do 01 v 10 UTC
Viditelnost: 7000 m
Oblačno až skoro zataženo ve výšce 800 ft

TAF: LSGG 282025Z 2821/0203 05005KT CAVOK TX11/0115Z TNM00/0103Z PROB40 0102/0110 7000 BKN008

Stav a předpovědi počasí z více než 4 000 letišť (zprávy METAR a TAF).

Červené a žluté tečky na mapě představují dostupné meteorologické stanice.

Když kurzor umístíte na tečku, zobrazí se název stanice.

Pak kliknutím zobrazíte stav a předpověď počasí.

Chcete-li změnit mapu, kliknutím na zelené tlačítko se znaménkem +mapu přiblížíte, kliknutím na zelené tlačítko se znaménkem – mapu oddálíte a kliknutím na zelené šipky přejdete na sousední mapy.


METAR-TAF: